Time;durP1;ratioP1;P1;durP2;ratioP2;P2;SDS_P1;SDS_P2;PMS_P1;PMS_P2;Temp;Humidity;BMP_temperature;BMP_pressure;BME280_temperature;BME280_humidity;BME280_pressure;Samples;Min_cycle;Max_cycle;Signal;HPM_P1;HPM_P2
2023/03/04 00:01:34;;;;;;;32.50;7.30;;;;;;;3.96;79.67;101488.23;108062;1254;72685;-77
2023/03/04 00:04:01;;;;;;;53.50;12.50;;;;;;;3.97;79.87;101486.36;107959;1255;59971;-78
2023/03/04 00:06:30;;;;;;;36.20;7.50;;;;;;;3.99;79.83;101487.42;107856;1254;60071;-77
2023/03/04 00:09:00;;;;;;;23.80;6.70;;;;;;;4.01;79.58;101486.78;107883;1253;72569;-76
2023/03/04 00:11:27;;;;;;;32.30;8.70;;;;;;;4.02;79.43;101489.16;107862;1255;70054;-77
2023/03/04 00:13:55;;;;;;;49.30;9.70;;;;;;;4.03;79.30;101491.06;107580;1254;72412;-76
2023/03/04 00:16:26;;;;;;;32.90;7.60;;;;;;;4.06;79.47;101494.95;107942;1252;60532;-77
2023/03/04 00:18:56;;;;;;;40.10;9.60;;;;;;;4.07;79.26;101491.09;107755;1257;60340;-76
2023/03/04 00:21:23;;;;;;;33.50;8.10;;;;;;;4.09;79.26;101490.77;107594;1254;72444;-78
2023/03/04 00:23:50;;;;;;;26.80;6.80;;;;;;;4.09;79.23;101490.94;107682;1254;70562;-77
2023/03/04 00:26:17;;;;;;;21.60;4.70;;;;;;;4.11;79.13;101488.55;107643;1254;72365;-77
2023/03/04 00:28:45;;;;;;;30.10;7.80;;;;;;;4.14;79.07;101485.50;107431;1254;61202;-77
2023/03/04 00:31:11;;;;;;;38.30;8.70;;;;;;;4.13;79.21;101484.90;107706;1253;59001;-76
2023/03/04 00:33:39;;;;;;;33.00;7.80;;;;;;;4.15;79.21;101485.83;108700;1254;73987;-76
2023/03/04 00:36:07;;;;;;;27.20;6.40;;;;;;;4.17;79.15;101477.60;108018;1254;72752;-76
2023/03/04 00:38:34;;;;;;;23.90;5.50;;;;;;;4.19;79.03;101479.38;107934;1253;72072;-78
2023/03/04 00:41:04;;;;;;;30.60;8.50;;;;;;;4.17;78.59;101478.27;107686;1254;60962;-76
2023/03/04 00:43:31;;;;;;;18.80;5.10;;;;;;;4.18;78.88;101475.22;107524;1254;60068;-76
2023/03/04 00:46:01;;;;;;;20.30;4.80;;;;;;;4.18;78.67;101472.80;108032;1254;72759;-78
2023/03/04 00:48:29;;;;;;;14.70;4.10;;;;;;;4.18;78.83;101471.04;107467;1254;70778;-77
2023/03/04 00:50:55;;;;;;;16.80;4.20;;;;;;;4.20;78.86;101470.56;107615;1254;71113;-78
2023/03/04 00:53:23;;;;;;;17.40;4.30;;;;;;;4.19;78.80;101468.02;107416;1254;60759;-77
2023/03/04 00:55:50;;;;;;;16.10;5.20;;;;;;;4.19;79.04;101467.80;107526;1254;60403;-77
2023/03/04 00:58:20;;;;;;;23.10;5.40;;;;;;;4.21;78.98;101468.05;107286;1254;74206;-77
2023/03/04 01:00:47;;;;;;;19.10;5.30;;;;;;;4.22;79.02;101463.55;107511;1254;70916;-77
2023/03/04 01:03:15;;;;;;;15.60;5.10;;;;;;;4.24;79.10;101462.52;107430;1254;71605;-77
2023/03/04 01:05:42;;;;;;;16.90;4.60;;;;;;;4.25;79.04;101465.77;107430;1254;60666;-76
2023/03/04 01:08:09;;;;;;;22.80;6.10;;;;;;;4.26;79.02;101463.63;107792;1253;60593;-76
2023/03/04 01:10:41;;;;;;;16.60;4.00;;;;;;;4.25;79.17;101464.41;107570;1254;72201;-76
2023/03/04 01:13:09;;;;;;;17.10;5.60;;;;;;;4.25;79.11;101461.01;107377;1254;70126;-78
2023/03/04 01:15:36;;;;;;;21.00;4.90;;;;;;;4.27;79.11;101456.16;107551;1254;70607;-76
2023/03/04 01:18:03;;;;;;;18.10;4.10;;;;;;;4.27;79.18;101454.79;107639;1254;62143;-77
2023/03/04 01:20:30;;;;;;;16.20;4.10;;;;;;;4.26;79.22;101452.40;108108;1254;60430;-77
2023/03/04 01:22:58;;;;;;;15.60;4.20;;;;;;;4.28;79.24;101456.64;107282;1254;72425;-78
2023/03/04 01:25:25;;;;;;;18.20;4.10;;;;;;;4.30;79.24;101453.13;107557;1254;70899;-76
2023/03/04 01:27:54;;;;;;;18.80;4.30;;;;;;;4.29;79.36;101446.02;107652;1254;72600;-77
2023/03/04 01:30:22;;;;;;;21.00;4.80;;;;;;;4.31;79.40;101441.66;107596;1254;61382;-78
2023/03/04 01:32:49;;;;;;;25.50;5.30;;;;;;;4.34;79.25;101438.70;107417;1254;60442;-77
2023/03/04 01:35:16;;;;;;;18.00;4.60;;;;;;;4.34;79.36;101436.21;107519;1254;74294;-77
2023/03/04 01:37:43;;;;;;;14.80;3.70;;;;;;;4.33;79.48;101431.20;107609;1254;70807;-76
2023/03/04 01:40:12;;;;;;;16.70;3.90;;;;;;;4.33;79.62;101431.53;107541;1254;71333;-77
2023/03/04 01:42:40;;;;;;;13.50;3.80;;;;;;;4.35;79.68;101424.76;107455;1254;61262;-77
2023/03/04 01:45:12;;;;;;;14.10;4.30;;;;;;;4.34;79.62;101426.93;107526;1254;60439;-76
2023/03/04 01:47:39;;;;;;;18.80;3.70;;;;;;;4.34;79.76;101419.22;107482;1254;72715;-77
2023/03/04 01:50:15;;;;;;;16.90;3.70;;;;;;;4.34;79.74;101416.09;107539;1254;70026;-77
2023/03/04 01:52:42;;;;;;;14.60;3.70;;;;;;;4.36;79.80;101407.52;107569;1254;73628;-77
2023/03/04 01:55:18;;;;;;;14.00;3.50;;;;;;;4.35;79.66;101399.70;107410;1254;61004;-77
2023/03/04 01:57:46;;;;;;;15.70;3.70;;;;;;;4.36;79.86;101395.41;108249;1254;59398;-77
2023/03/04 02:00:27;;;;;;;18.30;3.10;;;;;;;4.34;80.05;101392.47;107946;1254;74482;-76
2023/03/04 02:02:58;;;;;;;12.60;3.00;;;;;;;4.33;80.10;101387.58;108286;1254;69704;-76
2023/03/04 02:05:25;;;;;;;14.80;3.00;;;;;;;4.35;80.14;101385.17;108154;1254;73594;-76
2023/03/04 02:07:54;;;;;;;11.10;3.00;;;;;;;4.36;80.14;101378.43;108046;1257;59880;-76
2023/03/04 02:10:27;;;;;;;14.10;2.90;;;;;;;4.39;80.29;101378.42;107665;1255;61454;-76
2023/03/04 02:12:54;;;;;;;14.80;3.10;;;;;;;4.40;80.13;101379.52;107562;1254;73986;-77
2023/03/04 02:15:24;;;;;;;14.70;2.90;;;;;;;4.40;80.33;101376.73;107841;1254;70376;-77
2023/03/04 02:17:54;;;;;;;12.70;2.50;;;;;;;4.38;80.54;101374.42;107423;1254;73443;-77
2023/03/04 02:20:59;;;;;;;13.90;3.10;;;;;;;4.40;80.45;101375.70;107324;1254;60973;-76
2023/03/04 02:23:39;;;;;;;10.00;2.30;;;;;;;4.41;80.76;101367.04;107087;1258;60547;-78
2023/03/04 02:26:21;;;;;;;12.40;2.50;;;;;;;4.40;80.87;101368.34;107575;1254;71910;-76
2023/03/04 02:28:53;;;;;;;12.80;2.80;;;;;;;4.39;80.85;101366.66;107672;1256;71121;-77
2023/03/04 02:31:24;;;;;;;13.40;3.30;;;;;;;4.41;80.90;101358.77;107936;1255;72751;-77
2023/03/04 02:33:53;;;;;;;13.50;2.60;;;;;;;4.43;80.97;101355.50;108316;1254;61249;-77
2023/03/04 02:36:21;;;;;;;14.60;2.80;;;;;;;4.43;80.96;101357.91;107859;1254;60270;-76
2023/03/04 02:38:54;;;;;;;10.40;2.60;;;;;;;4.45;80.98;101353.23;107451;1254;74438;-78
2023/03/04 02:41:25;;;;;;;12.30;2.70;;;;;;;4.45;81.07;101352.66;108051;1254;71326;-76
2023/03/04 02:43:55;;;;;;;13.20;3.60;;;;;;;4.45;81.45;101348.81;108095;1255;73852;-78
2023/03/04 02:46:22;;;;;;;12.80;2.70;;;;;;;4.46;81.32;101346.48;107876;1254;61438;-79
2023/03/04 02:48:50;;;;;;;11.80;2.50;;;;;;;4.49;81.40;101346.25;107940;1254;60912;-77
2023/03/04 02:51:17;;;;;;;10.60;2.50;;;;;;;4.48;81.55;101346.69;108183;1254;72664;-77
2023/03/04 02:53:46;;;;;;;12.40;2.80;;;;;;;4.49;81.39;101346.28;107428;1254;70071;-77
2023/03/04 02:56:14;;;;;;;12.80;3.20;;;;;;;4.51;81.53;101345.25;107780;1254;71165;-76
2023/03/04 02:58:41;;;;;;;11.10;2.50;;;;;;;4.50;81.58;101344.08;107773;1254;61447;-77
2023/03/04 03:01:08;;;;;;;8.10;2.30;;;;;;;4.52;81.55;101348.88;107513;1258;59385;-77
2023/03/04 03:03:35;;;;;;;11.20;2.80;;;;;;;4.50;81.61;101350.74;107555;1254;72508;-77
2023/03/04 03:06:03;;;;;;;9.70;2.30;;;;;;;4.52;81.69;101345.17;107365;1254;70929;-78
2023/03/04 03:08:33;;;;;;;11.90;2.70;;;;;;;4.51;81.90;101343.86;107562;1254;71254;-77
2023/03/04 03:11:00;;;;;;;14.30;3.10;;;;;;;4.52;81.75;101347.14;107577;1253;60945;-77
2023/03/04 03:13:27;;;;;;;10.50;2.60;;;;;;;4.52;82.00;101351.63;107325;1254;60962;-78
2023/03/04 03:15:56;;;;;;;10.40;2.70;;;;;;;4.52;82.08;101349.88;107701;1253;72697;-78
2023/03/04 03:18:26;;;;;;;11.20;2.00;;;;;;;4.50;82.21;101343.05;107457;1254;71243;-78
2023/03/04 03:20:53;;;;;;;11.70;2.20;;;;;;;4.50;82.28;101343.39;107731;1254;71835;-77
2023/03/04 03:23:23;;;;;;;9.70;2.40;;;;;;;4.50;82.34;101339.19;107658;1253;60473;-78
2023/03/04 03:25:53;;;;;;;9.50;2.50;;;;;;;4.52;82.46;101336.40;108017;1254;60370;-78
2023/03/04 03:28:20;;;;;;;8.70;1.90;;;;;;;4.52;82.49;101340.63;107832;1254;73865;-79
2023/03/04 03:30:49;;;;;;;10.30;2.50;;;;;;;4.51;82.70;101338.02;107400;1254;69987;-77
2023/03/04 03:33:17;;;;;;;10.50;2.60;;;;;;;4.52;82.53;101333.77;107566;1254;71175;-79
2023/03/04 03:35:44;;;;;;;11.20;2.30;;;;;;;4.56;82.56;101330.52;107708;1254;61509;-76
2023/03/04 03:38:12;;;;;;;11.00;2.20;;;;;;;4.54;82.37;101340.98;107673;1254;60461;-77
2023/03/04 03:40:39;;;;;;;11.60;1.90;;;;;;;4.57;82.81;101329.53;107450;1256;72911;-76
2023/03/04 03:43:06;;;;;;;8.00;1.90;;;;;;;4.56;82.96;101330.00;107571;1254;69719;-78
2023/03/04 03:45:37;;;;;;;6.50;2.00;;;;;;;4.56;82.99;101325.22;107707;1254;73086;-77
2023/03/04 03:48:04;;;;;;;10.10;2.20;;;;;;;4.55;83.13;101328.83;107865;1254;61245;-76
2023/03/04 03:50:32;;;;;;;9.80;1.70;;;;;;;4.55;83.05;101324.30;107177;1254;61063;-77
2023/03/04 03:53:02;;;;;;;7.10;1.90;;;;;;;4.58;82.89;101324.77;107272;1255;72305;-78
2023/03/04 03:55:29;;;;;;;11.70;2.10;;;;;;;4.58;82.81;101332.30;107752;1254;70974;-78
2023/03/04 03:57:56;;;;;;;7.90;2.30;;;;;;;4.58;82.87;101327.40;107569;1254;73490;-77
2023/03/04 04:00:23;;;;;;;8.90;2.00;;;;;;;4.60;82.99;101322.67;107387;1258;59688;-78
2023/03/04 04:03:06;;;;;;;9.90;2.00;;;;;;;4.60;83.13;101323.17;107375;1258;60283;-78
2023/03/04 04:05:36;;;;;;;5.60;1.30;;;;;;;4.59;83.33;101317.86;107685;1254;73943;-76
2023/03/04 04:08:06;;;;;;;11.50;1.80;;;;;;;4.56;83.60;101321.59;107506;1255;70259;-79
2023/03/04 04:10:34;;;;;;;10.30;2.00;;;;;;;4.54;84.19;101319.62;107553;1256;71385;-79
2023/03/04 04:13:03;;;;;;;8.80;2.00;;;;;;;4.51;84.43;101316.13;107676;1254;60963;-77
2023/03/04 04:15:30;;;;;;;9.60;1.90;;;;;;;4.47;85.02;101316.66;107578;1255;60449;-76
2023/03/04 04:18:00;;;;;;;7.80;2.30;;;;;;;4.46;84.99;101308.48;107545;1254;73928;-76
2023/03/04 04:20:27;;;;;;;7.50;2.00;;;;;;;4.44;85.36;101312.72;107640;1254;69758;-77
2023/03/04 04:22:54;;;;;;;7.60;1.70;;;;;;;4.41;85.67;101315.17;107408;1254;73941;-76
2023/03/04 04:25:22;;;;;;;4.80;1.40;;;;;;;4.39;86.04;101309.77;107765;1258;60893;-78
2023/03/04 04:27:48;;;;;;;7.40;2.10;;;;;;;4.37;86.32;101310.98;107560;1254;60841;-78
2023/03/04 04:30:21;;;;;;;8.20;2.10;;;;;;;4.34;86.45;101307.15;107929;1256;74291;-78
2023/03/04 04:32:48;;;;;;;8.60;1.70;;;;;;;4.32;86.45;101308.91;107586;1254;71373;-76
2023/03/04 04:35:15;;;;;;;10.00;1.90;;;;;;;4.32;86.43;101303.65;107728;1254;70567;-76
2023/03/04 04:37:44;;;;;;;8.60;2.10;;;;;;;4.33;86.46;101301.33;107493;1258;60342;-75
2023/03/04 04:40:12;;;;;;;10.00;2.30;;;;;;;4.35;86.02;101300.64;107810;1254;61179;-77
2023/03/04 04:42:39;;;;;;;11.00;2.30;;;;;;;4.36;86.01;101297.58;107747;1254;71712;-77
2023/03/04 04:45:06;;;;;;;7.70;2.00;;;;;;;4.37;86.15;101294.83;107492;1254;71676;-78
2023/03/04 04:47:33;;;;;;;8.50;1.90;;;;;;;4.36;86.67;101296.52;107742;1255;71161;-76
2023/03/04 04:50:00;;;;;;;9.00;1.90;;;;;;;4.35;86.98;101296.95;107217;1255;61753;-76
2023/03/04 04:52:28;;;;;;;8.90;1.80;;;;;;;4.35;87.26;101294.95;107630;1256;59271;-78
2023/03/04 04:54:55;;;;;;;7.80;2.30;;;;;;;4.33;87.87;101297.63;107606;1254;74112;-76
2023/03/04 04:57:23;;;;;;;9.90;1.80;;;;;;;4.26;88.89;101288.86;107806;1254;69618;-76
2023/03/04 04:59:55;;;;;;;7.80;1.90;;;;;;;4.21;89.92;101287.84;107640;1255;71399;-80
2023/03/04 05:02:22;;;;;;;6.60;1.50;;;;;;;4.17;90.37;101282.34;107391;1257;60993;-76
2023/03/04 05:04:49;;;;;;;8.90;2.00;;;;;;;4.09;91.34;101286.88;107598;1256;60319;-77
2023/03/04 05:07:17;;;;;;;8.40;2.10;;;;;;;4.05;91.67;101277.38;107679;1254;72615;-77
2023/03/04 05:09:44;;;;;;;9.10;1.50;;;;;;;4.00;92.20;101278.25;107571;1255;71077;-77
2023/03/04 05:12:12;;;;;;;12.00;2.30;;;;;;;3.95;92.58;101277.58;107631;1254;73087;-77
2023/03/04 05:14:41;;;;;;;10.40;2.00;;;;;;;3.92;93.00;101280.48;107647;1255;60885;-77
2023/03/04 05:17:11;;;;;;;13.60;1.80;;;;;;;3.87;93.41;101274.84;107854;1254;60549;-77
2023/03/04 05:19:41;;;;;;;10.50;2.30;;;;;;;3.88;93.27;101266.73;107455;1255;73974;-78
2023/03/04 05:22:08;;;;;;;8.50;1.70;;;;;;;3.87;93.60;101271.91;107350;1255;71010;-77
2023/03/04 05:24:35;;;;;;;5.00;1.50;;;;;;;3.84;93.88;101270.23;107526;1255;70349;-77
2023/03/04 05:27:10;;;;;;;10.10;2.20;;;;;;;3.83;93.79;101273.65;107734;1258;60403;-76
2023/03/04 05:29:45;;;;;;;9.90;1.90;;;;;;;3.82;93.71;101276.30;107475;1254;60713;-76
2023/03/04 05:32:12;;;;;;;9.30;1.90;;;;;;;3.82;93.70;101270.54;107763;1254;74785;-78
2023/03/04 05:34:39;;;;;;;9.30;1.50;;;;;;;3.83;93.75;101276.94;107697;1254;70976;-78
2023/03/04 05:37:06;;;;;;;14.30;2.40;;;;;;;3.83;93.79;101276.20;107407;1254;73023;-77
2023/03/04 05:39:34;;;;;;;10.80;1.80;;;;;;;3.84;93.50;101274.27;107493;1254;60556;-75
2023/03/04 05:42:01;;;;;;;8.20;2.10;;;;;;;3.84;93.60;101274.91;107507;1254;60533;-76
2023/03/04 05:44:28;;;;;;;5.70;1.50;;;;;;;3.83;93.61;101285.14;107370;1253;73630;-76
2023/03/04 05:46:55;;;;;;;8.60;1.70;;;;;;;3.82;94.00;101277.15;107709;1254;69574;-76
2023/03/04 05:49:22;;;;;;;7.80;2.00;;;;;;;3.78;94.76;101291.36;107641;1253;72561;-77
2023/03/04 05:51:49;;;;;;;7.80;2.10;;;;;;;3.78;94.54;101282.42;107706;1254;60931;-75
2023/03/04 05:54:16;;;;;;;7.40;1.60;;;;;;;3.75;94.88;101279.98;107551;1254;60553;-76
2023/03/04 05:56:44;;;;;;;8.20;2.20;;;;;;;3.76;94.69;101275.55;107694;1258;73608;-77
2023/03/04 05:59:19;;;;;;;8.00;1.70;;;;;;;3.78;94.66;101277.33;107643;1256;71370;-79
2023/03/04 06:01:46;;;;;;;9.30;1.70;;;;;;;3.78;94.47;101277.36;107369;1256;72708;-76
2023/03/04 06:04:13;;;;;;;7.30;1.60;;;;;;;3.82;94.30;101280.16;107342;1254;60943;-78
2023/03/04 06:06:40;;;;;;;8.30;1.60;;;;;;;3.82;94.20;101285.60;107574;1254;60273;-76
2023/03/04 06:09:07;;;;;;;6.70;1.50;;;;;;;3.85;93.74;101282.77;107828;1255;74056;-77
2023/03/04 06:11:34;;;;;;;7.20;2.10;;;;;;;3.89;93.90;101270.88;107220;1258;71148;-78
2023/03/04 06:14:07;;;;;;;8.20;1.50;;;;;;;3.92;93.75;101273.64;107576;1256;72413;-77
2023/03/04 06:16:34;;;;;;;6.30;1.70;;;;;;;3.94;93.67;101279.30;107653;1256;60448;-76
2023/03/04 06:19:01;;;;;;;7.30;1.90;;;;;;;3.93;94.18;101283.14;107599;1255;60313;-76
2023/03/04 06:21:29;;;;;;;10.00;2.10;;;;;;;3.93;94.23;101280.73;107446;1254;73175;-77
2023/03/04 06:23:56;;;;;;;10.40;1.80;;;;;;;3.93;94.22;101281.09;107301;1254;69893;-77
2023/03/04 06:26:25;;;;;;;7.40;1.80;;;;;;;3.95;93.86;101274.78;108054;1254;71234;-77
2023/03/04 06:28:55;;;;;;;7.00;1.70;;;;;;;3.96;93.96;101273.83;107439;1254;61691;-80
2023/03/04 06:31:22;;;;;;;8.20;2.00;;;;;;;3.97;93.95;101272.90;107708;1254;60345;-76
2023/03/04 06:33:50;;;;;;;9.80;1.50;;;;;;;3.99;94.05;101272.40;107422;1256;72929;-77
2023/03/04 06:36:17;;;;;;;5.70;1.50;;;;;;;3.99;94.34;101276.23;107638;1255;69626;-78
2023/03/04 06:38:44;;;;;;;7.50;1.80;;;;;;;3.97;94.73;101278.33;107579;1255;72277;-75
2023/03/04 06:41:12;;;;;;;8.40;1.50;;;;;;;3.96;95.14;101280.84;107563;1255;60476;-77
2023/03/04 06:43:40;;;;;;;9.30;1.90;;;;;;;3.94;95.13;101284.17;107502;1254;60930;-76
2023/03/04 06:46:07;;;;;;;8.50;1.80;;;;;;;3.94;95.57;101282.23;107317;1254;74836;-77
2023/03/04 06:48:35;;;;;;;7.50;1.70;;;;;;;3.94;95.55;101282.76;107810;1254;71735;-77
2023/03/04 06:51:06;;;;;;;9.30;1.60;;;;;;;3.95;95.43;101288.44;107814;1254;72763;-76
2023/03/04 06:53:33;;;;;;;8.10;1.60;;;;;;;3.97;95.15;101288.60;107297;1256;60491;-77
2023/03/04 06:56:00;;;;;;;8.40;1.60;;;;;;;4.00;95.39;101277.88;107509;1253;61520;-77
2023/03/04 06:58:28;;;;;;;4.40;1.40;;;;;;;4.03;95.32;101275.20;107614;1254;74820;-75
2023/03/04 07:00:55;;;;;;;6.30;1.70;;;;;;;4.07;94.88;101278.91;107492;1254;69888;-77
2023/03/04 07:03:22;;;;;;;4.80;1.10;;;;;;;4.12;94.60;101283.16;107464;1254;72919;-76
2023/03/04 07:05:53;;;;;;;9.70;2.10;;;;;;;4.11;94.94;101282.51;107663;1258;60562;-78
2023/03/04 07:08:20;;;;;;;7.70;1.60;;;;;;;4.05;96.08;101282.96;107633;1256;60535;-77
2023/03/04 07:10:53;;;;;;;9.90;1.90;;;;;;;3.99;96.52;101277.98;107558;1255;72986;-78
2023/03/04 07:13:21;;;;;;;7.00;1.60;;;;;;;3.98;97.09;101280.67;107340;1254;71354;-78
2023/03/04 07:15:48;;;;;;;7.30;1.70;;;;;;;3.98;97.21;101279.48;107489;1254;71539;-77
2023/03/04 07:18:15;;;;;;;9.10;2.20;;;;;;;3.98;97.20;101276.29;107352;1254;60893;-76
2023/03/04 07:20:43;;;;;;;9.30;2.30;;;;;;;4.00;97.03;101273.19;107600;1253;60476;-77
2023/03/04 07:23:10;;;;;;;9.60;1.80;;;;;;;4.03;97.23;101276.98;107450;1254;72343;-79
2023/03/04 07:25:37;;;;;;;6.90;2.00;;;;;;;4.07;96.98;101275.27;107503;1254;70067;-77
2023/03/04 07:28:04;;;;;;;7.30;1.80;;;;;;;4.11;96.84;101281.45;107472;1254;73145;-76
2023/03/04 07:30:31;;;;;;;6.70;1.80;;;;;;;4.15;96.54;101279.24;107797;1256;60848;-76
2023/03/04 07:32:58;;;;;;;7.80;2.20;;;;;;;4.16;96.64;101278.75;107821;1254;61031;-76
2023/03/04 07:35:28;;;;;;;6.30;1.80;;;;;;;4.21;96.52;101280.36;107366;1255;73569;-76
2023/03/04 07:37:55;;;;;;;5.50;1.40;;;;;;;4.20;96.91;101281.61;107568;1256;72094;-77
2023/03/04 07:40:23;;;;;;;7.10;1.70;;;;;;;4.17;97.64;101280.31;107854;1254;72419;-76
2023/03/04 07:42:51;;;;;;;9.40;1.70;;;;;;;4.15;98.23;101284.83;107471;1255;61712;-76
2023/03/04 07:45:18;;;;;;;6.80;1.90;;;;;;;4.13;98.74;101288.15;107509;1258;60482;-78
2023/03/04 07:47:46;;;;;;;7.90;2.10;;;;;;;4.15;98.59;101280.80;107698;1254;72503;-77
2023/03/04 07:50:14;;;;;;;7.80;2.00;;;;;;;4.20;98.48;101281.27;107577;1254;69674;-76
2023/03/04 07:52:49;;;;;;;8.80;2.10;;;;;;;4.23;98.11;101284.02;107629;1254;71717;-76
2023/03/04 07:55:17;;;;;;;5.00;2.00;;;;;;;4.29;97.75;101288.98;107641;1254;59088;-77
2023/03/04 07:57:46;;;;;;;8.90;2.60;;;;;;;4.38;97.30;101286.70;108743;1254;60578;-74
2023/03/04 08:00:15;;;;;;;7.00;2.50;;;;;;;4.50;96.81;101283.16;109088;1254;73011;-73
2023/03/04 08:02:42;;;;;;;8.10;2.70;;;;;;;4.60;96.12;101288.13;108480;1254;71743;-73
2023/03/04 08:05:12;;;;;;;6.20;2.40;;;;;;;4.70;95.24;101289.62;107436;1254;71465;-72
2023/03/04 08:07:39;;;;;;;5.80;2.10;;;;;;;4.78;94.84;101283.77;107253;1254;61229;-74
2023/03/04 08:10:07;;;;;;;7.80;2.80;;;;;;;4.83;94.70;101284.86;107612;1256;59763;-74
2023/03/04 08:12:35;;;;;;;8.50;2.90;;;;;;;4.85;94.67;101284.71;107352;1254;74120;-72
2023/03/04 08:15:02;;;;;;;8.80;3.40;;;;;;;4.85;95.01;101280.01;107564;1254;70181;-73
2023/03/04 08:17:32;;;;;;;10.50;4.60;;;;;;;4.79;95.99;101285.60;107540;1254;73737;-74
2023/03/04 08:19:59;;;;;;;10.40;4.10;;;;;;;4.75;96.80;101282.20;107390;1254;60418;-74
2023/03/04 08:22:26;;;;;;;8.20;3.20;;;;;;;4.70;97.63;101288.19;107445;1254;60188;-73
2023/03/04 08:24:53;;;;;;;6.60;2.20;;;;;;;4.64;98.57;101281.13;107226;1254;73658;-73
2023/03/04 08:27:20;;;;;;;8.00;2.10;;;;;;;4.63;99.26;101283.13;107544;1254;71403;-73
2023/03/04 08:29:47;;;;;;;7.60;2.40;;;;;;;4.60;99.79;101281.65;107396;1258;70641;-73
2023/03/04 08:32:14;;;;;;;7.10;2.60;;;;;;;4.56;100.00;101284.11;107357;1255;60342;-73
2023/03/04 08:34:41;;;;;;;4.30;1.80;;;;;;;4.53;100.00;101277.48;107992;1254;60283;-74
2023/03/04 08:37:08;;;;;;;8.00;3.00;;;;;;;4.50;100.00;101280.33;107174;1254;72472;-73
2023/03/04 08:39:37;;;;;;;7.30;3.00;;;;;;;4.48;100.00;101277.47;107473;1256;69244;-73
2023/03/04 08:42:04;;;;;;;6.20;2.50;;;;;;;4.51;100.00;101283.40;107222;1255;72801;-74
2023/03/04 08:44:31;;;;;;;8.00;2.60;;;;;;;4.48;100.00;101282.39;107539;1256;60916;-74
2023/03/04 08:46:58;;;;;;;8.10;3.10;;;;;;;4.47;100.00;101279.69;107695;1254;60345;-74
2023/03/04 08:49:32;;;;;;;7.40;3.30;;;;;;;4.49;100.00;101286.37;107229;1256;277464;-72
2023/03/04 08:52:02;;;;;;;7.30;3.10;;;;;;;4.49;100.00;101295.11;107792;1254;70230;-74
2023/03/04 08:54:31;;;;;;;11.00;4.70;;;;;;;4.47;100.00;101283.19;107391;1253;73376;-75
2023/03/04 08:56:58;;;;;;;11.80;5.30;;;;;;;4.50;100.00;101286.30;107666;1255;61436;-74
2023/03/04 08:59:25;;;;;;;13.40;7.20;;;;;;;4.50;100.00;101288.44;107517;1254;59687;-74
2023/03/04 09:01:53;;;;;;;12.20;6.90;;;;;;;4.45;100.00;101290.55;107448;1254;72670;-73
2023/03/04 09:04:20;;;;;;;12.50;6.50;;;;;;;4.44;100.00;101293.39;107516;1254;72290;-74
2023/03/04 09:06:47;;;;;;;15.00;6.80;;;;;;;4.44;100.00;101290.77;107420;1254;72683;-76
2023/03/04 09:09:14;;;;;;;11.30;7.30;;;;;;;4.45;100.00;101294.71;107600;1254;60386;-74
2023/03/04 09:11:44;;;;;;;12.00;7.10;;;;;;;4.44;100.00;101291.13;107667;1254;60157;-75
2023/03/04 09:14:11;;;;;;;11.40;6.00;;;;;;;4.46;100.00;101291.17;107991;1254;72936;-74
2023/03/04 09:16:38;;;;;;;10.70;4.70;;;;;;;4.48;100.00;101286.42;107918;1254;70650;-74
2023/03/04 09:19:05;;;;;;;9.20;4.20;;;;;;;4.52;100.00;101290.86;108249;1256;70985;-74
2023/03/04 09:21:35;;;;;;;8.20;3.80;;;;;;;4.51;100.00;101299.52;107713;1258;62090;-75
2023/03/04 09:24:03;;;;;;;15.30;6.10;;;;;;;4.55;100.00;101296.11;107692;1254;60357;-73
2023/03/04 09:26:30;;;;;;;40.40;14.00;;;;;;;4.54;100.00;101299.62;107807;1256;72897;-74
2023/03/04 09:28:59;;;;;;;22.90;9.00;;;;;;;4.58;100.00;101296.02;107690;1256;71484;-73
2023/03/04 09:31:29;;;;;;;43.10;15.40;;;;;;;4.68;100.00;101295.93;107728;1257;72367;-76
2023/03/04 09:33:59;;;;;;;13.60;5.20;;;;;;;4.86;100.00;101293.11;107748;1258;60451;-76
2023/03/04 09:36:26;;;;;;;43.90;18.60;;;;;;;5.03;100.00;101297.69;107540;1254;60413;-78
2023/03/04 09:38:59;;;;;;;17.60;7.30;;;;;;;5.17;100.00;101295.48;107350;1261;73890;-76
2023/03/04 09:41:36;;;;;;;14.10;6.30;;;;;;;5.26;100.00;101300.40;107915;1258;69704;-77
2023/03/04 09:44:12;;;;;;;19.50;7.50;;;;;;;5.37;100.00;101294.59;107374;1254;72810;-76
2023/03/04 09:46:42;;;;;;;60.70;23.40;;;;;;;5.50;100.00;101294.02;107610;1254;60960;-76
2023/03/04 09:49:12;;;;;;;77.10;31.60;;;;;;;5.49;99.47;101290.04;107669;1254;60457;-75
2023/03/04 09:52:00;;;;;;;40.60;16.60;;;;;;;5.49;99.15;101287.73;107735;1254;74018;-76
2023/03/04 09:54:49;;;;;;;46.40;17.10;;;;;;;5.45;98.77;101289.89;108342;1254;71028;-76
2023/03/04 09:57:44;;;;;;;58.40;22.40;;;;;;;5.42;98.40;101288.17;109182;1255;72400;-79
2023/03/04 10:00:29;;;;;;;24.20;8.30;;;;;;;5.36;98.73;101288.89;108512;1254;61710;-79
2023/03/04 10:03:08;;;;;;;28.40;9.90;;;;;;;5.29;98.45;101288.23;108778;1255;59063;-79
2023/03/04 10:05:51;;;;;;;18.90;6.60;;;;;;;5.24;98.85;101284.21;108326;1255;71602;-79
2023/03/04 10:08:36;;;;;;;21.40;7.50;;;;;;;5.21;99.65;101294.43;108294;1254;70777;-79
2023/03/04 10:11:11;;;;;;;34.80;15.80;;;;;;;5.26;99.95;101288.98;108430;1258;71537;-79
2023/03/04 10:13:52;;;;;;;20.40;7.10;;;;;;;5.33;98.03;101298.77;108155;1254;59785;-79
2023/03/04 10:16:23;;;;;;;16.60;6.80;;;;;;;5.40;95.13;101291.84;107796;1254;60388;-77
2023/03/04 10:19:25;;;;;;;35.70;15.10;;;;;;;5.50;95.22;101284.23;107404;1254;73931;-77
2023/03/04 10:21:52;;;;;;;30.00;14.00;;;;;;;5.61;94.47;101283.83;107670;1257;71179;-78
2023/03/04 10:24:23;;;;;;;38.50;16.90;;;;;;;5.63;93.09;101289.39;107880;1258;71162;-77
2023/03/04 10:26:55;;;;;;;33.70;14.90;;;;;;;5.69;92.37;101280.67;107940;1257;60235;-78
2023/03/04 10:29:29;;;;;;;37.20;18.80;;;;;;;5.78;91.61;101283.45;107602;1254;59200;-77
2023/03/04 10:31:55;;;;;;;22.00;11.20;;;;;;;5.86;90.89;101279.44;107599;1258;72692;-76
2023/03/04 10:34:23;;;;;;;28.30;13.20;;;;;;;5.90;90.83;101273.81;107655;1254;71087;-76
2023/03/04 10:37:05;;;;;;;29.50;17.10;;;;;;;5.83;89.81;101275.46;107719;1258;72412;-77
2023/03/04 10:39:37;;;;;;;16.70;7.40;;;;;;;5.71;89.68;101281.38;107376;1256;60197;-78
2023/03/04 10:42:21;;;;;;;26.30;15.00;;;;;;;5.56;89.53;101281.08;107501;1254;60422;-77
2023/03/04 10:44:56;;;;;;;34.50;17.40;;;;;;;5.39;89.95;101280.00;107706;1254;73981;-77
2023/03/04 10:47:32;;;;;;;29.40;14.90;;;;;;;5.35;91.17;101267.96;107818;1254;70312;-78
2023/03/04 10:50:02;;;;;;;24.00;8.50;;;;;;;5.32;92.33;101266.19;107799;1254;71273;-78
2023/03/04 10:52:43;;;;;;;23.00;8.20;;;;;;;5.28;92.60;101275.64;107566;1254;61278;-76
2023/03/04 10:55:20;;;;;;;22.90;10.80;;;;;;;5.28;93.23;101275.66;107551;1259;60448;-77
2023/03/04 10:58:03;;;;;;;15.30;4.30;;;;;;;5.32;93.80;101274.78;107946;1254;73201;-77
2023/03/04 11:00:33;;;;;;;10.30;2.80;;;;;;;5.40;94.52;101273.64;107428;1254;69786;-76
2023/03/04 11:03:21;;;;;;;12.40;3.00;;;;;;;5.47;94.17;101275.49;107624;1254;71988;-77
2023/03/04 11:06:03;;;;;;;9.90;2.30;;;;;;;5.60;92.30;101276.01;107600;1254;60873;-79
2023/03/04 11:08:32;;;;;;;9.80;2.40;;;;;;;5.81;89.71;101275.83;107310;1254;60329;-75
2023/03/04 11:10:59;;;;;;;10.20;2.20;;;;;;;5.94;88.01;101280.52;107605;1254;72372;-77
2023/03/04 11:13:27;;;;;;;5.70;1.30;;;;;;;5.92;86.98;101277.02;107721;1255;71942;-78
2023/03/04 11:16:22;;;;;;;6.40;1.60;;;;;;;5.67;87.31;101283.45;107349;1254;70928;-78
2023/03/04 11:18:55;;;;;;;9.30;1.60;;;;;;;5.40;88.31;101290.79;107975;1255;60708;-79
2023/03/04 11:21:29;;;;;;;6.50;1.60;;;;;;;5.30;88.85;101278.47;107629;1254;60328;-79
2023/03/04 11:23:57;;;;;;;9.90;2.30;;;;;;;5.39;89.62;101276.71;107251;1257;71433;-78
2023/03/04 11:26:46;;;;;;;6.60;1.80;;;;;;;5.56;89.40;101278.61;107722;1254;71477;-78
2023/03/04 11:29:42;;;;;;;7.20;1.70;;;;;;;5.69;87.89;101272.27;107715;1254;72066;-79
2023/03/04 11:32:17;;;;;;;5.90;1.50;;;;;;;5.88;87.98;101272.91;107534;1254;60438;-77